sensor_id;sensor_type;location;lat;lon;timestamp;P1;durP1;ratioP1;P2;durP2;ratioP2
4810;SDS011;2419;51.276;6.472;2023-07-31T00:00:03;16.77;;;4.20;;
4810;SDS011;2419;51.276;6.472;2023-07-31T00:02:32;9.83;;;3.13;;
4810;SDS011;2419;51.276;6.472;2023-07-31T00:05:00;10.57;;;4.33;;
4810;SDS011;2419;51.276;6.472;2023-07-31T00:07:29;9.17;;;3.37;;
4810;SDS011;2419;51.276;6.472;2023-07-31T00:09:57;9.00;;;3.63;;
4810;SDS011;2419;51.276;6.472;2023-07-31T00:12:25;6.70;;;2.80;;
4810;SDS011;2419;51.276;6.472;2023-07-31T00:14:53;10.80;;;3.50;;
4810;SDS011;2419;51.276;6.472;2023-07-31T00:17:22;8.33;;;4.67;;
4810;SDS011;2419;51.276;6.472;2023-07-31T00:19:50;10.67;;;4.47;;
4810;SDS011;2419;51.276;6.472;2023-07-31T00:22:18;10.90;;;3.10;;
4810;SDS011;2419;51.276;6.472;2023-07-31T00:24:46;14.03;;;4.47;;
4810;SDS011;2419;51.276;6.472;2023-07-31T00:27:14;9.03;;;3.17;;
4810;SDS011;2419;51.276;6.472;2023-07-31T00:29:42;10.13;;;3.97;;
4810;SDS011;2419;51.276;6.472;2023-07-31T00:32:10;7.17;;;3.50;;
4810;SDS011;2419;51.276;6.472;2023-07-31T00:34:40;15.33;;;3.67;;
4810;SDS011;2419;51.276;6.472;2023-07-31T00:37:08;6.33;;;3.60;;
4810;SDS011;2419;51.276;6.472;2023-07-31T00:39:36;7.60;;;3.60;;
4810;SDS011;2419;51.276;6.472;2023-07-31T00:42:04;16.40;;;4.27;;
4810;SDS011;2419;51.276;6.472;2023-07-31T00:44:33;6.67;;;3.53;;
4810;SDS011;2419;51.276;6.472;2023-07-31T00:47:01;11.07;;;3.97;;
4810;SDS011;2419;51.276;6.472;2023-07-31T00:49:29;5.10;;;3.20;;
4810;SDS011;2419;51.276;6.472;2023-07-31T00:51:59;7.63;;;3.13;;
4810;SDS011;2419;51.276;6.472;2023-07-31T00:54:28;6.30;;;3.10;;
4810;SDS011;2419;51.276;6.472;2023-07-31T00:56:56;8.23;;;3.50;;
4810;SDS011;2419;51.276;6.472;2023-07-31T00:59:25;7.63;;;3.47;;
4810;SDS011;2419;51.276;6.472;2023-07-31T01:01:53;10.50;;;3.87;;
4810;SDS011;2419;51.276;6.472;2023-07-31T01:04:21;7.63;;;2.80;;
4810;SDS011;2419;51.276;6.472;2023-07-31T01:06:52;7.67;;;2.67;;
4810;SDS011;2419;51.276;6.472;2023-07-31T01:09:31;11.10;;;3.40;;
4810;SDS011;2419;51.276;6.472;2023-07-31T01:12:07;8.10;;;3.30;;
4810;SDS011;2419;51.276;6.472;2023-07-31T01:14:40;13.03;;;3.30;;
4810;SDS011;2419;51.276;6.472;2023-07-31T01:17:08;10.93;;;3.50;;
4810;SDS011;2419;51.276;6.472;2023-07-31T01:19:36;11.13;;;3.43;;
4810;SDS011;2419;51.276;6.472;2023-07-31T01:22:11;11.87;;;3.80;;
4810;SDS011;2419;51.276;6.472;2023-07-31T01:24:53;9.17;;;3.43;;
4810;SDS011;2419;51.276;6.472;2023-07-31T01:27:29;5.10;;;2.83;;
4810;SDS011;2419;51.276;6.472;2023-07-31T01:30:03;8.67;;;3.60;;
4810;SDS011;2419;51.276;6.472;2023-07-31T01:32:38;7.50;;;3.40;;
4810;SDS011;2419;51.276;6.472;2023-07-31T01:35:08;7.07;;;3.20;;
4810;SDS011;2419;51.276;6.472;2023-07-31T01:37:36;11.77;;;4.00;;
4810;SDS011;2419;51.276;6.472;2023-07-31T01:40:06;10.10;;;2.87;;
4810;SDS011;2419;51.276;6.472;2023-07-31T01:42:36;12.07;;;3.60;;
4810;SDS011;2419;51.276;6.472;2023-07-31T01:45:05;8.20;;;3.37;;
4810;SDS011;2419;51.276;6.472;2023-07-31T01:47:34;11.80;;;3.43;;
4810;SDS011;2419;51.276;6.472;2023-07-31T01:50:03;6.43;;;2.97;;
4810;SDS011;2419;51.276;6.472;2023-07-31T01:52:31;13.23;;;4.00;;
4810;SDS011;2419;51.276;6.472;2023-07-31T01:54:59;6.33;;;3.80;;
4810;SDS011;2419;51.276;6.472;2023-07-31T01:57:28;10.37;;;3.20;;
4810;SDS011;2419;51.276;6.472;2023-07-31T01:59:57;11.63;;;3.10;;
4810;SDS011;2419;51.276;6.472;2023-07-31T02:02:25;6.67;;;3.43;;
4810;SDS011;2419;51.276;6.472;2023-07-31T02:04:53;6.57;;;3.77;;
4810;SDS011;2419;51.276;6.472;2023-07-31T02:07:21;8.93;;;3.60;;
4810;SDS011;2419;51.276;6.472;2023-07-31T02:09:49;12.73;;;3.60;;
4810;SDS011;2419;51.276;6.472;2023-07-31T02:12:17;8.53;;;3.03;;
4810;SDS011;2419;51.276;6.472;2023-07-31T02:14:45;6.90;;;2.50;;
4810;SDS011;2419;51.276;6.472;2023-07-31T02:17:14;8.13;;;3.37;;
4810;SDS011;2419;51.276;6.472;2023-07-31T02:19:42;7.57;;;3.80;;
4810;SDS011;2419;51.276;6.472;2023-07-31T02:22:11;8.87;;;3.23;;
4810;SDS011;2419;51.276;6.472;2023-07-31T02:24:39;6.80;;;3.27;;
4810;SDS011;2419;51.276;6.472;2023-07-31T02:27:07;7.20;;;3.50;;
4810;SDS011;2419;51.276;6.472;2023-07-31T02:29:35;21.53;;;4.17;;
4810;SDS011;2419;51.276;6.472;2023-07-31T02:32:03;11.63;;;4.70;;
4810;SDS011;2419;51.276;6.472;2023-07-31T02:34:33;11.43;;;4.17;;
4810;SDS011;2419;51.276;6.472;2023-07-31T02:37:01;14.23;;;3.30;;
4810;SDS011;2419;51.276;6.472;2023-07-31T02:39:29;7.53;;;4.03;;
4810;SDS011;2419;51.276;6.472;2023-07-31T02:41:57;15.30;;;4.40;;
4810;SDS011;2419;51.276;6.472;2023-07-31T02:44:25;18.23;;;3.97;;
4810;SDS011;2419;51.276;6.472;2023-07-31T02:46:53;16.87;;;4.67;;
4810;SDS011;2419;51.276;6.472;2023-07-31T02:49:21;12.70;;;3.17;;
4810;SDS011;2419;51.276;6.472;2023-07-31T02:51:51;4.20;;;3.20;;
4810;SDS011;2419;51.276;6.472;2023-07-31T02:54:19;12.67;;;3.47;;
4810;SDS011;2419;51.276;6.472;2023-07-31T02:56:47;14.47;;;3.57;;
4810;SDS011;2419;51.276;6.472;2023-07-31T02:59:16;12.10;;;4.00;;
4810;SDS011;2419;51.276;6.472;2023-07-31T03:01:44;5.10;;;3.43;;
4810;SDS011;2419;51.276;6.472;2023-07-31T03:04:12;6.27;;;3.30;;
4810;SDS011;2419;51.276;6.472;2023-07-31T03:06:44;13.17;;;4.23;;
4810;SDS011;2419;51.276;6.472;2023-07-31T03:09:13;8.33;;;2.80;;
4810;SDS011;2419;51.276;6.472;2023-07-31T03:11:41;10.10;;;4.17;;
4810;SDS011;2419;51.276;6.472;2023-07-31T03:14:10;13.90;;;4.23;;
4810;SDS011;2419;51.276;6.472;2023-07-31T03:16:38;6.20;;;3.40;;
4810;SDS011;2419;51.276;6.472;2023-07-31T03:19:06;15.00;;;3.77;;
4810;SDS011;2419;51.276;6.472;2023-07-31T03:21:34;9.47;;;3.37;;
4810;SDS011;2419;51.276;6.472;2023-07-31T03:24:02;11.50;;;5.37;;
4810;SDS011;2419;51.276;6.472;2023-07-31T03:26:32;9.23;;;3.43;;
4810;SDS011;2419;51.276;6.472;2023-07-31T03:29:01;7.87;;;4.00;;
4810;SDS011;2419;51.276;6.472;2023-07-31T03:31:29;9.63;;;3.47;;
4810;SDS011;2419;51.276;6.472;2023-07-31T03:33:57;12.73;;;4.30;;
4810;SDS011;2419;51.276;6.472;2023-07-31T03:36:26;8.83;;;3.70;;
4810;SDS011;2419;51.276;6.472;2023-07-31T03:38:55;9.90;;;3.50;;
4810;SDS011;2419;51.276;6.472;2023-07-31T03:41:23;10.80;;;3.20;;
4810;SDS011;2419;51.276;6.472;2023-07-31T03:43:54;8.20;;;2.87;;
4810;SDS011;2419;51.276;6.472;2023-07-31T03:46:23;8.63;;;3.60;;
4810;SDS011;2419;51.276;6.472;2023-07-31T03:48:53;9.30;;;3.63;;
4810;SDS011;2419;51.276;6.472;2023-07-31T03:51:21;8.73;;;3.30;;
4810;SDS011;2419;51.276;6.472;2023-07-31T03:53:50;16.20;;;3.63;;
4810;SDS011;2419;51.276;6.472;2023-07-31T03:56:18;7.93;;;3.87;;
4810;SDS011;2419;51.276;6.472;2023-07-31T03:58:46;8.83;;;3.20;;
4810;SDS011;2419;51.276;6.472;2023-07-31T04:01:15;11.23;;;3.50;;
4810;SDS011;2419;51.276;6.472;2023-07-31T04:03:44;13.00;;;3.80;;
4810;SDS011;2419;51.276;6.472;2023-07-31T04:06:12;7.70;;;3.77;;
4810;SDS011;2419;51.276;6.472;2023-07-31T04:08:44;9.40;;;3.50;;
4810;SDS011;2419;51.276;6.472;2023-07-31T04:11:12;5.43;;;3.10;;
4810;SDS011;2419;51.276;6.472;2023-07-31T04:13:40;7.83;;;3.80;;
4810;SDS011;2419;51.276;6.472;2023-07-31T04:16:08;10.07;;;3.83;;
4810;SDS011;2419;51.276;6.472;2023-07-31T04:18:37;7.53;;;3.43;;
4810;SDS011;2419;51.276;6.472;2023-07-31T04:21:05;9.30;;;3.03;;
4810;SDS011;2419;51.276;6.472;2023-07-31T04:23:33;7.90;;;3.10;;
4810;SDS011;2419;51.276;6.472;2023-07-31T04:26:01;10.97;;;3.83;;
4810;SDS011;2419;51.276;6.472;2023-07-31T04:28:29;6.70;;;3.30;;
4810;SDS011;2419;51.276;6.472;2023-07-31T04:30:58;5.93;;;3.60;;
4810;SDS011;2419;51.276;6.472;2023-07-31T04:33:26;9.33;;;3.63;;
4810;SDS011;2419;51.276;6.472;2023-07-31T04:35:56;7.77;;;3.63;;
4810;SDS011;2419;51.276;6.472;2023-07-31T04:38:24;8.83;;;3.80;;
4810;SDS011;2419;51.276;6.472;2023-07-31T04:40:52;7.00;;;3.50;;
4810;SDS011;2419;51.276;6.472;2023-07-31T04:43:20;7.23;;;3.57;;
4810;SDS011;2419;51.276;6.472;2023-07-31T04:45:48;4.63;;;3.43;;
4810;SDS011;2419;51.276;6.472;2023-07-31T04:48:17;14.13;;;4.20;;
4810;SDS011;2419;51.276;6.472;2023-07-31T04:50:45;5.77;;;3.60;;
4810;SDS011;2419;51.276;6.472;2023-07-31T04:53:14;10.10;;;4.17;;
4810;SDS011;2419;51.276;6.472;2023-07-31T04:55:42;7.63;;;3.53;;
4810;SDS011;2419;51.276;6.472;2023-07-31T04:58:10;6.60;;;3.80;;
4810;SDS011;2419;51.276;6.472;2023-07-31T05:00:38;12.07;;;4.10;;
4810;SDS011;2419;51.276;6.472;2023-07-31T05:03:06;8.30;;;3.57;;
4810;SDS011;2419;51.276;6.472;2023-07-31T05:05:35;9.43;;;4.33;;
4810;SDS011;2419;51.276;6.472;2023-07-31T05:08:03;10.23;;;4.20;;
4810;SDS011;2419;51.276;6.472;2023-07-31T05:10:33;7.17;;;3.60;;
4810;SDS011;2419;51.276;6.472;2023-07-31T05:13:01;6.40;;;3.60;;
4810;SDS011;2419;51.276;6.472;2023-07-31T05:15:29;6.30;;;3.37;;
4810;SDS011;2419;51.276;6.472;2023-07-31T05:17:58;9.27;;;3.77;;
4810;SDS011;2419;51.276;6.472;2023-07-31T05:20:28;7.20;;;3.67;;
4810;SDS011;2419;51.276;6.472;2023-07-31T05:22:56;5.40;;;4.00;;
4810;SDS011;2419;51.276;6.472;2023-07-31T05:25:24;10.97;;;3.53;;
4810;SDS011;2419;51.276;6.472;2023-07-31T05:27:53;7.50;;;4.33;;
4810;SDS011;2419;51.276;6.472;2023-07-31T05:30:23;7.47;;;3.90;;
4810;SDS011;2419;51.276;6.472;2023-07-31T05:32:51;6.37;;;3.67;;
4810;SDS011;2419;51.276;6.472;2023-07-31T05:35:19;9.03;;;4.40;;
4810;SDS011;2419;51.276;6.472;2023-07-31T05:37:48;7.13;;;3.67;;
4810;SDS011;2419;51.276;6.472;2023-07-31T05:40:16;5.63;;;3.10;;
4810;SDS011;2419;51.276;6.472;2023-07-31T05:42:44;6.53;;;3.33;;
4810;SDS011;2419;51.276;6.472;2023-07-31T05:45:13;7.83;;;3.50;;
4810;SDS011;2419;51.276;6.472;2023-07-31T05:47:41;3.90;;;3.03;;
4810;SDS011;2419;51.276;6.472;2023-07-31T05:50:09;7.30;;;2.97;;
4810;SDS011;2419;51.276;6.472;2023-07-31T05:52:37;5.23;;;3.50;;
4810;SDS011;2419;51.276;6.472;2023-07-31T05:55:05;6.30;;;3.50;;
4810;SDS011;2419;51.276;6.472;2023-07-31T05:57:34;8.00;;;3.97;;
4810;SDS011;2419;51.276;6.472;2023-07-31T06:00:02;6.50;;;3.80;;
4810;SDS011;2419;51.276;6.472;2023-07-31T06:02:34;12.17;;;4.10;;
4810;SDS011;2419;51.276;6.472;2023-07-31T06:05:03;9.83;;;4.07;;
4810;SDS011;2419;51.276;6.472;2023-07-31T06:07:32;5.90;;;3.87;;
4810;SDS011;2419;51.276;6.472;2023-07-31T06:10:00;8.50;;;3.70;;
4810;SDS011;2419;51.276;6.472;2023-07-31T06:12:31;9.30;;;3.83;;
4810;SDS011;2419;51.276;6.472;2023-07-31T06:14:59;8.23;;;3.90;;
4810;SDS011;2419;51.276;6.472;2023-07-31T06:17:27;6.00;;;3.67;;
4810;SDS011;2419;51.276;6.472;2023-07-31T06:19:57;6.90;;;3.97;;
4810;SDS011;2419;51.276;6.472;2023-07-31T06:22:25;5.77;;;3.13;;
4810;SDS011;2419;51.276;6.472;2023-07-31T06:24:53;7.43;;;3.43;;
4810;SDS011;2419;51.276;6.472;2023-07-31T06:27:21;5.47;;;3.70;;
4810;SDS011;2419;51.276;6.472;2023-07-31T06:29:49;10.83;;;3.30;;
4810;SDS011;2419;51.276;6.472;2023-07-31T06:32:17;7.00;;;4.40;;
4810;SDS011;2419;51.276;6.472;2023-07-31T06:34:45;7.73;;;4.27;;
4810;SDS011;2419;51.276;6.472;2023-07-31T06:37:15;18.10;;;3.87;;
4810;SDS011;2419;51.276;6.472;2023-07-31T06:39:43;13.03;;;3.80;;
4810;SDS011;2419;51.276;6.472;2023-07-31T06:42:11;7.20;;;3.90;;
4810;SDS011;2419;51.276;6.472;2023-07-31T06:44:39;4.80;;;3.43;;
4810;SDS011;2419;51.276;6.472;2023-07-31T06:47:07;6.73;;;3.20;;
4810;SDS011;2419;51.276;6.472;2023-07-31T06:49:35;14.80;;;4.17;;
4810;SDS011;2419;51.276;6.472;2023-07-31T06:52:03;8.50;;;3.30;;
4810;SDS011;2419;51.276;6.472;2023-07-31T06:54:33;9.83;;;4.20;;
4810;SDS011;2419;51.276;6.472;2023-07-31T06:57:01;6.43;;;3.20;;
4810;SDS011;2419;51.276;6.472;2023-07-31T06:59:29;4.00;;;3.30;;
4810;SDS011;2419;51.276;6.472;2023-07-31T07:01:57;6.77;;;3.67;;
4810;SDS011;2419;51.276;6.472;2023-07-31T07:04:25;7.77;;;3.57;;
4810;SDS011;2419;51.276;6.472;2023-07-31T07:06:53;11.00;;;3.40;;
4810;SDS011;2419;51.276;6.472;2023-07-31T07:09:22;8.87;;;3.10;;
4810;SDS011;2419;51.276;6.472;2023-07-31T07:11:54;7.57;;;3.90;;
4810;SDS011;2419;51.276;6.472;2023-07-31T07:14:22;8.87;;;4.23;;
4810;SDS011;2419;51.276;6.472;2023-07-31T07:16:50;6.97;;;3.60;;
4810;SDS011;2419;51.276;6.472;2023-07-31T07:19:18;8.93;;;4.10;;
4810;SDS011;2419;51.276;6.472;2023-07-31T07:21:46;5.80;;;3.63;;
4810;SDS011;2419;51.276;6.472;2023-07-31T07:24:14;5.60;;;3.57;;
4810;SDS011;2419;51.276;6.472;2023-07-31T07:26:44;7.40;;;3.20;;
4810;SDS011;2419;51.276;6.472;2023-07-31T07:29:13;11.10;;;4.17;;
4810;SDS011;2419;51.276;6.472;2023-07-31T07:31:41;11.30;;;4.03;;
4810;SDS011;2419;51.276;6.472;2023-07-31T07:34:09;5.17;;;3.33;;
4810;SDS011;2419;51.276;6.472;2023-07-31T07:36:37;8.97;;;3.70;;
4810;SDS011;2419;51.276;6.472;2023-07-31T07:39:06;4.73;;;2.70;;
4810;SDS011;2419;51.276;6.472;2023-07-31T07:41:34;9.60;;;3.60;;
4810;SDS011;2419;51.276;6.472;2023-07-31T07:44:02;2.90;;;2.57;;
4810;SDS011;2419;51.276;6.472;2023-07-31T07:46:31;4.57;;;3.30;;
4810;SDS011;2419;51.276;6.472;2023-07-31T07:48:59;6.10;;;3.13;;
4810;SDS011;2419;51.276;6.472;2023-07-31T07:51:27;4.50;;;3.03;;
4810;SDS011;2419;51.276;6.472;2023-07-31T07:53:57;5.63;;;3.00;;
4810;SDS011;2419;51.276;6.472;2023-07-31T07:56:25;8.80;;;3.20;;
4810;SDS011;2419;51.276;6.472;2023-07-31T07:58:54;4.27;;;3.00;;
4810;SDS011;2419;51.276;6.472;2023-07-31T08:01:22;8.30;;;3.40;;
4810;SDS011;2419;51.276;6.472;2023-07-31T08:03:51;7.50;;;3.30;;
4810;SDS011;2419;51.276;6.472;2023-07-31T08:06:20;4.80;;;3.30;;
4810;SDS011;2419;51.276;6.472;2023-07-31T08:08:49;7.17;;;3.00;;
4810;SDS011;2419;51.276;6.472;2023-07-31T08:11:17;5.93;;;2.90;;
4810;SDS011;2419;51.276;6.472;2023-07-31T08:13:45;3.77;;;3.33;;
4810;SDS011;2419;51.276;6.472;2023-07-31T08:16:13;5.33;;;3.30;;
4810;SDS011;2419;51.276;6.472;2023-07-31T08:18:41;4.07;;;2.70;;
4810;SDS011;2419;51.276;6.472;2023-07-31T08:21:11;8.33;;;3.40;;
4810;SDS011;2419;51.276;6.472;2023-07-31T08:23:39;6.50;;;2.90;;
4810;SDS011;2419;51.276;6.472;2023-07-31T08:26:07;5.87;;;2.70;;
4810;SDS011;2419;51.276;6.472;2023-07-31T08:28:35;6.90;;;3.40;;
4810;SDS011;2419;51.276;6.472;2023-07-31T08:31:03;8.53;;;3.30;;
4810;SDS011;2419;51.276;6.472;2023-07-31T08:33:32;6.73;;;3.90;;
4810;SDS011;2419;51.276;6.472;2023-07-31T08:36:00;7.90;;;3.20;;
4810;SDS011;2419;51.276;6.472;2023-07-31T08:38:29;6.47;;;3.37;;
4810;SDS011;2419;51.276;6.472;2023-07-31T08:40:57;4.17;;;2.97;;
4810;SDS011;2419;51.276;6.472;2023-07-31T08:43:26;5.63;;;2.60;;
4810;SDS011;2419;51.276;6.472;2023-07-31T08:45:54;5.27;;;3.47;;
4810;SDS011;2419;51.276;6.472;2023-07-31T08:48:23;11.37;;;3.50;;
4810;SDS011;2419;51.276;6.472;2023-07-31T08:50:52;5.00;;;3.17;;
4810;SDS011;2419;51.276;6.472;2023-07-31T08:53:20;5.60;;;2.93;;
4810;SDS011;2419;51.276;6.472;2023-07-31T08:55:50;7.17;;;3.07;;
4810;SDS011;2419;51.276;6.472;2023-07-31T08:58:20;10.63;;;3.70;;
4810;SDS011;2419;51.276;6.472;2023-07-31T09:00:49;8.23;;;3.27;;
4810;SDS011;2419;51.276;6.472;2023-07-31T09:03:20;6.13;;;3.10;;
4810;SDS011;2419;51.276;6.472;2023-07-31T09:05:52;4.70;;;2.57;;
4810;SDS011;2419;51.276;6.472;2023-07-31T09:08:22;8.07;;;3.10;;
4810;SDS011;2419;51.276;6.472;2023-07-31T09:10:53;6.27;;;3.07;;
4810;SDS011;2419;51.276;6.472;2023-07-31T09:13:21;5.30;;;2.83;;
4810;SDS011;2419;51.276;6.472;2023-07-31T09:15:50;7.13;;;3.90;;
4810;SDS011;2419;51.276;6.472;2023-07-31T09:18:18;6.10;;;3.17;;
4810;SDS011;2419;51.276;6.472;2023-07-31T09:21:00;7.73;;;3.30;;
4810;SDS011;2419;51.276;6.472;2023-07-31T09:23:39;5.10;;;3.00;;
4810;SDS011;2419;51.276;6.472;2023-07-31T09:26:09;5.33;;;3.00;;
4810;SDS011;2419;51.276;6.472;2023-07-31T09:28:38;4.40;;;3.40;;
4810;SDS011;2419;51.276;6.472;2023-07-31T09:31:07;7.43;;;3.03;;
4810;SDS011;2419;51.276;6.472;2023-07-31T09:33:35;6.63;;;2.83;;
4810;SDS011;2419;51.276;6.472;2023-07-31T09:36:22;4.20;;;2.80;;
4810;SDS011;2419;51.276;6.472;2023-07-31T09:38:50;10.40;;;3.37;;
4810;SDS011;2419;51.276;6.472;2023-07-31T09:41:19;16.13;;;3.30;;
4810;SDS011;2419;51.276;6.472;2023-07-31T09:43:52;8.10;;;3.20;;
4810;SDS011;2419;51.276;6.472;2023-07-31T09:46:21;5.73;;;3.30;;
4810;SDS011;2419;51.276;6.472;2023-07-31T09:48:49;5.87;;;2.70;;
4810;SDS011;2419;51.276;6.472;2023-07-31T09:51:17;6.10;;;3.30;;
4810;SDS011;2419;51.276;6.472;2023-07-31T09:53:53;4.27;;;3.20;;
4810;SDS011;2419;51.276;6.472;2023-07-31T09:56:23;4.73;;;3.00;;
4810;SDS011;2419;51.276;6.472;2023-07-31T09:58:51;4.73;;;3.10;;
4810;SDS011;2419;51.276;6.472;2023-07-31T10:01:20;3.83;;;2.97;;
4810;SDS011;2419;51.276;6.472;2023-07-31T10:03:48;7.13;;;3.30;;
4810;SDS011;2419;51.276;6.472;2023-07-31T10:06:17;3.70;;;3.07;;
4810;SDS011;2419;51.276;6.472;2023-07-31T10:08:46;2.97;;;2.67;;
4810;SDS011;2419;51.276;6.472;2023-07-31T10:11:16;3.80;;;3.03;;
4810;SDS011;2419;51.276;6.472;2023-07-31T10:13:46;8.77;;;3.23;;
4810;SDS011;2419;51.276;6.472;2023-07-31T10:16:14;6.47;;;3.17;;
4810;SDS011;2419;51.276;6.472;2023-07-31T10:18:43;4.17;;;3.20;;
4810;SDS011;2419;51.276;6.472;2023-07-31T10:21:13;6.17;;;3.30;;
4810;SDS011;2419;51.276;6.472;2023-07-31T10:23:41;4.57;;;3.13;;
4810;SDS011;2419;51.276;6.472;2023-07-31T10:26:11;6.60;;;3.10;;
4810;SDS011;2419;51.276;6.472;2023-07-31T10:28:41;6.50;;;3.13;;
4810;SDS011;2419;51.276;6.472;2023-07-31T10:31:12;3.50;;;2.80;;
4810;SDS011;2419;51.276;6.472;2023-07-31T10:33:41;5.40;;;2.87;;
4810;SDS011;2419;51.276;6.472;2023-07-31T10:36:13;3.23;;;2.47;;
4810;SDS011;2419;51.276;6.472;2023-07-31T10:38:41;3.57;;;2.40;;
4810;SDS011;2419;51.276;6.472;2023-07-31T10:41:09;5.43;;;2.67;;
4810;SDS011;2419;51.276;6.472;2023-07-31T10:43:38;6.17;;;2.17;;
4810;SDS011;2419;51.276;6.472;2023-07-31T10:46:06;12.43;;;2.80;;
4810;SDS011;2419;51.276;6.472;2023-07-31T10:48:37;3.90;;;2.77;;
4810;SDS011;2419;51.276;6.472;2023-07-31T10:51:08;4.43;;;2.83;;
4810;SDS011;2419;51.276;6.472;2023-07-31T10:53:37;5.23;;;2.70;;
4810;SDS011;2419;51.276;6.472;2023-07-31T10:56:08;3.60;;;2.60;;
4810;SDS011;2419;51.276;6.472;2023-07-31T10:58:39;6.97;;;2.30;;
4810;SDS011;2419;51.276;6.472;2023-07-31T11:01:07;3.37;;;2.60;;
4810;SDS011;2419;51.276;6.472;2023-07-31T11:03:46;5.07;;;3.00;;
4810;SDS011;2419;51.276;6.472;2023-07-31T11:06:16;5.73;;;3.40;;
4810;SDS011;2419;51.276;6.472;2023-07-31T11:08:45;2.60;;;2.00;;
4810;SDS011;2419;51.276;6.472;2023-07-31T11:11:15;4.93;;;2.80;;
4810;SDS011;2419;51.276;6.472;2023-07-31T11:13:45;5.10;;;3.00;;
4810;SDS011;2419;51.276;6.472;2023-07-31T11:16:16;3.53;;;2.33;;
4810;SDS011;2419;51.276;6.472;2023-07-31T11:18:47;3.53;;;2.47;;
4810;SDS011;2419;51.276;6.472;2023-07-31T11:21:18;3.47;;;2.17;;
4810;SDS011;2419;51.276;6.472;2023-07-31T11:23:47;4.13;;;2.40;;
4810;SDS011;2419;51.276;6.472;2023-07-31T11:26:16;3.80;;;2.07;;
4810;SDS011;2419;51.276;6.472;2023-07-31T11:28:46;5.30;;;1.90;;
4810;SDS011;2419;51.276;6.472;2023-07-31T11:31:15;2.60;;;1.90;;
4810;SDS011;2419;51.276;6.472;2023-07-31T11:33:43;4.37;;;2.40;;
4810;SDS011;2419;51.276;6.472;2023-07-31T11:36:15;2.23;;;1.93;;
4810;SDS011;2419;51.276;6.472;2023-07-31T11:38:44;3.43;;;2.30;;
4810;SDS011;2419;51.276;6.472;2023-07-31T11:41:13;2.93;;;1.93;;
4810;SDS011;2419;51.276;6.472;2023-07-31T11:43:43;3.20;;;2.07;;
4810;SDS011;2419;51.276;6.472;2023-07-31T11:46:12;2.57;;;2.30;;
4810;SDS011;2419;51.276;6.472;2023-07-31T11:48:41;2.60;;;2.00;;
4810;SDS011;2419;51.276;6.472;2023-07-31T11:51:10;2.40;;;1.90;;
4810;SDS011;2419;51.276;6.472;2023-07-31T11:53:43;3.20;;;2.03;;
4810;SDS011;2419;51.276;6.472;2023-07-31T11:56:13;2.53;;;1.80;;
4810;SDS011;2419;51.276;6.472;2023-07-31T11:58:45;7.10;;;2.00;;
4810;SDS011;2419;51.276;6.472;2023-07-31T12:01:14;3.37;;;2.10;;
4810;SDS011;2419;51.276;6.472;2023-07-31T12:03:45;3.00;;;1.90;;
4810;SDS011;2419;51.276;6.472;2023-07-31T12:06:14;3.30;;;2.23;;
4810;SDS011;2419;51.276;6.472;2023-07-31T12:08:44;1.97;;;1.77;;
4810;SDS011;2419;51.276;6.472;2023-07-31T12:11:12;2.40;;;1.80;;
4810;SDS011;2419;51.276;6.472;2023-07-31T12:13:41;3.80;;;2.17;;
4810;SDS011;2419;51.276;6.472;2023-07-31T12:16:09;1.77;;;1.40;;
4810;SDS011;2419;51.276;6.472;2023-07-31T12:18:37;4.63;;;2.20;;
4810;SDS011;2419;51.276;6.472;2023-07-31T12:21:06;3.13;;;1.90;;
4810;SDS011;2419;51.276;6.472;2023-07-31T12:23:37;5.07;;;2.27;;
4810;SDS011;2419;51.276;6.472;2023-07-31T12:26:10;4.53;;;2.10;;
4810;SDS011;2419;51.276;6.472;2023-07-31T12:28:40;2.70;;;2.33;;
4810;SDS011;2419;51.276;6.472;2023-07-31T12:31:09;2.90;;;2.30;;
4810;SDS011;2419;51.276;6.472;2023-07-31T12:33:39;2.50;;;2.20;;
4810;SDS011;2419;51.276;6.472;2023-07-31T12:36:09;2.27;;;1.87;;
4810;SDS011;2419;51.276;6.472;2023-07-31T12:38:38;4.13;;;2.20;;
4810;SDS011;2419;51.276;6.472;2023-07-31T12:41:06;4.07;;;2.40;;
4810;SDS011;2419;51.276;6.472;2023-07-31T12:43:36;4.97;;;2.70;;
4810;SDS011;2419;51.276;6.472;2023-07-31T12:46:08;2.80;;;2.10;;
4810;SDS011;2419;51.276;6.472;2023-07-31T12:48:38;3.77;;;2.07;;
4810;SDS011;2419;51.276;6.472;2023-07-31T12:51:06;3.00;;;2.33;;
4810;SDS011;2419;51.276;6.472;2023-07-31T12:53:34;3.00;;;2.40;;
4810;SDS011;2419;51.276;6.472;2023-07-31T12:56:03;4.37;;;3.10;;
4810;SDS011;2419;51.276;6.472;2023-07-31T12:58:31;3.57;;;2.63;;
4810;SDS011;2419;51.276;6.472;2023-07-31T13:01:01;7.93;;;2.90;;
4810;SDS011;2419;51.276;6.472;2023-07-31T13:03:29;3.47;;;3.10;;
4810;SDS011;2419;51.276;6.472;2023-07-31T13:05:57;4.27;;;3.07;;
4810;SDS011;2419;51.276;6.472;2023-07-31T13:08:25;3.97;;;2.93;;
4810;SDS011;2419;51.276;6.472;2023-07-31T13:10:53;4.17;;;3.20;;
4810;SDS011;2419;51.276;6.472;2023-07-31T13:13:21;3.63;;;2.70;;
4810;SDS011;2419;51.276;6.472;2023-07-31T13:15:49;4.50;;;2.57;;
4810;SDS011;2419;51.276;6.472;2023-07-31T13:18:19;8.87;;;3.57;;
4810;SDS011;2419;51.276;6.472;2023-07-31T13:20:47;4.00;;;2.80;;
4810;SDS011;2419;51.276;6.472;2023-07-31T13:23:15;3.50;;;2.90;;
4810;SDS011;2419;51.276;6.472;2023-07-31T13:25:43;5.13;;;3.50;;
4810;SDS011;2419;51.276;6.472;2023-07-31T13:28:11;5.37;;;3.80;;
4810;SDS011;2419;51.276;6.472;2023-07-31T13:30:39;4.23;;;3.00;;
4810;SDS011;2419;51.276;6.472;2023-07-31T13:33:07;8.53;;;3.60;;
4810;SDS011;2419;51.276;6.472;2023-07-31T13:35:56;8.33;;;3.67;;
4810;SDS011;2419;51.276;6.472;2023-07-31T13:38:24;5.63;;;2.87;;
4810;SDS011;2419;51.276;6.472;2023-07-31T13:40:52;4.93;;;3.40;;
4810;SDS011;2419;51.276;6.472;2023-07-31T13:43:20;4.60;;;3.33;;
4810;SDS011;2419;51.276;6.472;2023-07-31T13:45:48;5.57;;;3.07;;
4810;SDS011;2419;51.276;6.472;2023-07-31T13:48:16;5.87;;;2.93;;
4810;SDS011;2419;51.276;6.472;2023-07-31T13:50:44;5.90;;;2.60;;
4810;SDS011;2419;51.276;6.472;2023-07-31T13:53:14;4.50;;;3.13;;
4810;SDS011;2419;51.276;6.472;2023-07-31T13:55:42;4.53;;;3.60;;
4810;SDS011;2419;51.276;6.472;2023-07-31T13:58:11;7.70;;;3.17;;
4810;SDS011;2419;51.276;6.472;2023-07-31T14:00:39;3.77;;;2.80;;
4810;SDS011;2419;51.276;6.472;2023-07-31T14:03:08;5.30;;;3.00;;
4810;SDS011;2419;51.276;6.472;2023-07-31T14:05:36;9.20;;;2.63;;
4810;SDS011;2419;51.276;6.472;2023-07-31T14:08:05;5.00;;;3.20;;
4810;SDS011;2419;51.276;6.472;2023-07-31T14:10:34;4.50;;;3.03;;
4810;SDS011;2419;51.276;6.472;2023-07-31T14:13:02;6.80;;;3.37;;
4810;SDS011;2419;51.276;6.472;2023-07-31T14:15:30;3.70;;;2.43;;
4810;SDS011;2419;51.276;6.472;2023-07-31T14:18:02;3.77;;;2.80;;
4810;SDS011;2419;51.276;6.472;2023-07-31T14:20:30;6.90;;;2.73;;
4810;SDS011;2419;51.276;6.472;2023-07-31T14:22:58;3.70;;;2.70;;
4810;SDS011;2419;51.276;6.472;2023-07-31T14:25:27;2.93;;;2.63;;
4810;SDS011;2419;51.276;6.472;2023-07-31T14:27:56;5.57;;;2.97;;
4810;SDS011;2419;51.276;6.472;2023-07-31T14:30:24;4.30;;;2.90;;
4810;SDS011;2419;51.276;6.472;2023-07-31T14:32:52;3.70;;;2.60;;
4810;SDS011;2419;51.276;6.472;2023-07-31T14:35:21;5.20;;;2.90;;
4810;SDS011;2419;51.276;6.472;2023-07-31T14:37:49;4.30;;;2.70;;
4810;SDS011;2419;51.276;6.472;2023-07-31T14:40:19;5.17;;;2.50;;
4810;SDS011;2419;51.276;6.472;2023-07-31T14:42:47;5.30;;;2.70;;
4810;SDS011;2419;51.276;6.472;2023-07-31T14:45:16;3.73;;;2.50;;
4810;SDS011;2419;51.276;6.472;2023-07-31T14:47:44;6.07;;;3.10;;
4810;SDS011;2419;51.276;6.472;2023-07-31T14:50:13;5.30;;;2.63;;
4810;SDS011;2419;51.276;6.472;2023-07-31T14:52:41;3.40;;;2.70;;
4810;SDS011;2419;51.276;6.472;2023-07-31T14:55:09;4.50;;;2.90;;
4810;SDS011;2419;51.276;6.472;2023-07-31T14:57:37;7.30;;;3.20;;
4810;SDS011;2419;51.276;6.472;2023-07-31T15:00:05;7.30;;;3.57;;
4810;SDS011;2419;51.276;6.472;2023-07-31T15:02:38;6.23;;;3.20;;
4810;SDS011;2419;51.276;6.472;2023-07-31T15:05:07;5.27;;;3.33;;
4810;SDS011;2419;51.276;6.472;2023-07-31T15:07:35;7.00;;;3.10;;
4810;SDS011;2419;51.276;6.472;2023-07-31T15:10:07;5.80;;;3.87;;
4810;SDS011;2419;51.276;6.472;2023-07-31T15:12:35;6.40;;;3.40;;
4810;SDS011;2419;51.276;6.472;2023-07-31T15:15:04;5.97;;;2.97;;
4810;SDS011;2419;51.276;6.472;2023-07-31T15:17:33;5.30;;;3.50;;
4810;SDS011;2419;51.276;6.472;2023-07-31T15:20:03;5.13;;;2.80;;
4810;SDS011;2419;51.276;6.472;2023-07-31T15:22:32;3.83;;;2.70;;